Terminal Aerodrome Forecast
Issued by NWS

Home | Current Version | Previous Version | Text Only | Print | Product List | Glossary On
Versions: 1 2 3 4 5 6 7 8 9 10 11 12 13 14 15 16 17 18 19 20 21 22 23 24 25
000
FTUS43 KDLH 231730
TAFHYR
TAF
KHYR 231730Z 2318/2418 19009G16KT P6SM FEW100
     FM240000 18004KT P6SM SCT250
     FM240600 17004KT P6SM FEW040 BKN250 WS020/21035KT
     FM241400 18007KT P6SM SCT250=

USA.gov is the U.S. government's official web portal to all federal, state and local government web resources and services.